Time;durP1;ratioP1;P1;durP2;ratioP2;P2;SDS_P1;SDS_P2;PMS_P1;PMS_P2;Temp;Humidity;BMP_temperature;BMP_pressure;BME280_temperature;BME280_humidity;BME280_pressure;Samples;Min_cycle;Max_cycle;Signal;HPM_P1;HPM_P2
2021/03/01 00:00:09;;;;;;;17.47;8.17;;;;;;;15.52;49.06;100305.75;4997289;28;20488;-64
2021/03/01 00:02:36;;;;;;;10.87;5.47;;;;;;;15.59;48.93;100308.97;5000785;28;20062;-65
2021/03/01 00:05:04;;;;;;;17.30;6.90;;;;;;;15.49;49.25;100295.16;4991826;28;20093;-66
2021/03/01 00:07:33;;;;;;;16.97;8.13;;;;;;;15.45;50.13;100316.63;4994813;28;20050;-65
2021/03/01 00:09:59;;;;;;;33.03;8.57;;;;;;;15.38;50.84;100317.91;4995231;28;20125;-65
2021/03/01 00:12:26;;;;;;;19.00;8.67;;;;;;;15.29;51.66;100314.19;5000516;28;20053;-63
2021/03/01 00:14:54;;;;;;;15.77;7.00;;;;;;;15.23;52.40;100315.47;4992586;28;20410;-65
2021/03/01 00:17:21;;;;;;;16.20;6.73;;;;;;;14.86;53.01;100257.56;4997056;28;20064;-65
2021/03/01 00:19:48;;;;;;;17.43;7.17;;;;;;;15.19;53.91;100320.06;4992592;28;20061;-65
2021/03/01 00:22:20;;;;;;;17.53;7.23;;;;;;;15.17;54.31;100306.28;4995364;28;20077;-65
2021/03/01 00:24:46;;;;;;;16.70;8.83;;;;;;;15.09;55.00;100320.28;4992064;28;20503;-66
2021/03/01 00:27:15;;;;;;;15.70;7.50;;;;;;;15.05;55.72;100325.72;4992997;28;20042;-65
2021/03/01 00:29:41;;;;;;;24.17;8.13;;;;;;;15.01;56.49;100323.84;4996859;28;20038;-65
2021/03/01 00:32:15;;;;;;;18.73;8.37;;;;;;;14.82;58.36;100316.38;4994863;28;20446;-67
2021/03/01 00:34:42;;;;;;;9.43;6.27;;;;;;;14.81;58.15;100311.09;4995579;28;20403;-67
2021/03/01 00:37:08;;;;;;;16.87;9.20;;;;;;;14.85;58.41;100310.13;5009219;28;20046;-67
2021/03/01 00:39:37;;;;;;;25.57;10.57;;;;;;;14.78;59.27;100306.94;4996453;28;20047;-66
2021/03/01 00:42:04;;;;;;;15.07;8.13;;;;;;;14.84;58.70;100314.09;4992621;28;20531;-74
2021/03/01 00:44:31;;;;;;;10.33;5.80;;;;;;;14.88;59.49;100325.56;4994979;28;20050;-68
2021/03/01 00:46:59;;;;;;;18.07;7.07;;;;;;;14.60;59.49;100265.75;4994506;28;20042;-71
2021/03/01 00:49:26;;;;;;;19.23;8.70;;;;;;;14.89;59.75;100328.03;5004798;28;20046;-78
2021/03/01 00:51:52;;;;;;;24.33;8.13;;;;;;;14.75;60.70;100321.59;5004414;28;20064;-81
2021/03/01 00:54:21;;;;;;;22.10;8.27;;;;;;;14.79;61.07;100331.06;5000565;28;20132;-70
2021/03/01 00:56:48;;;;;;;10.05;6.22;;;;;;;14.82;60.96;100333.25;5003878;28;20049;-69
2021/03/01 00:59:15;;;;;;;21.03;8.70;;;;;;;14.62;61.67;100316.84;5000455;28;20054;-68
2021/03/01 01:01:44;;;;;;;20.53;8.47;;;;;;;14.72;61.49;100319.41;4995919;28;20046;-68
2021/03/01 01:04:11;;;;;;;18.80;9.05;;;;;;;14.83;61.59;100334.09;4997972;28;20502;-72
2021/03/01 01:06:37;;;;;;;12.37;5.47;;;;;;;14.81;61.52;100347.66;4997842;28;20457;-71
2021/03/01 01:09:04;;;;;;;17.53;7.53;;;;;;;14.74;61.96;100348.06;4998903;28;20103;-72
2021/03/01 01:11:30;;;;;;;26.03;8.70;;;;;;;14.71;62.72;100345.03;5000326;28;20054;-73
2021/03/01 01:13:56;;;;;;;24.07;9.27;;;;;;;14.74;62.57;100342.44;4995324;28;20052;-70
2021/03/01 01:16:23;;;;;;;32.20;10.30;;;;;;;14.76;62.68;100339.31;5000423;28;20494;-68
2021/03/01 01:18:50;;;;;;;9.97;5.50;;;;;;;14.60;63.65;100344.44;5003627;28;20046;-69
2021/03/01 01:21:17;;;;;;;21.33;10.43;;;;;;;14.71;62.94;100351.50;5006709;28;20096;-67
2021/03/01 01:23:49;;;;;;;23.00;7.60;;;;;;;14.62;63.04;100322.44;5006259;28;20042;-68
2021/03/01 01:26:15;;;;;;;15.30;8.70;;;;;;;14.71;62.72;100336.63;4995894;28;20053;-70
2021/03/01 01:28:42;;;;;;;8.23;4.37;;;;;;;14.61;63.13;100330.06;5004692;28;20057;-69
2021/03/01 01:31:08;;;;;;;16.40;7.63;;;;;;;14.66;63.31;100329.09;5005334;28;20043;-67
2021/03/01 01:33:34;;;;;;;17.83;8.90;;;;;;;14.64;63.20;100337.88;5003847;28;20423;-65
2021/03/01 01:36:01;;;;;;;25.47;10.80;;;;;;;14.48;63.45;100315.97;5001786;28;20050;-67
2021/03/01 01:38:27;;;;;;;19.97;8.57;;;;;;;14.63;63.71;100332.53;5004876;28;20053;-66
2021/03/01 01:40:53;;;;;;;24.93;9.53;;;;;;;14.58;64.13;100327.03;5003213;28;20384;-67
2021/03/01 01:43:21;;;;;;;18.73;8.20;;;;;;;14.59;63.96;100323.91;4995685;28;20058;-70
2021/03/01 01:45:48;;;;;;;12.23;7.47;;;;;;;14.65;63.47;100314.22;4997874;28;20418;-69
2021/03/01 01:48:14;;;;;;;21.07;9.40;;;;;;;14.64;63.75;100320.16;5001777;28;20442;-65
2021/03/01 01:50:41;;;;;;;18.03;9.13;;;;;;;14.67;63.56;100322.34;5000204;28;20049;-67
2021/03/01 01:53:07;;;;;;;13.77;6.77;;;;;;;14.60;63.98;100324.75;4994914;28;20053;-64
2021/03/01 01:55:34;;;;;;;13.03;6.27;;;;;;;14.62;63.69;100314.03;4998827;28;20049;-66
2021/03/01 01:58:01;;;;;;;11.67;5.97;;;;;;;14.49;64.24;100310.03;5000410;28;20048;-66
2021/03/01 02:00:43;;;;;;;32.17;11.50;;;;;;;14.57;63.96;100325.38;5000582;28;20046;-66
2021/03/01 02:03:19;;;;;;;26.07;9.07;;;;;;;14.56;64.20;100301.22;5006532;28;20048;-66
2021/03/01 02:05:47;;;;;;;14.43;6.83;;;;;;;14.54;64.07;100309.16;4999608;28;20539;-67
2021/03/01 02:08:27;;;;;;;21.50;9.83;;;;;;;14.48;64.54;100318.78;4997354;28;20073;-67
2021/03/01 02:11:15;;;;;;;25.83;9.50;;;;;;;14.30;65.31;100309.31;4999227;28;20057;-68
2021/03/01 02:13:56;;;;;;;23.63;11.27;;;;;;;14.37;65.20;100315.34;5005131;28;20049;-67
2021/03/01 02:16:33;;;;;;;28.33;9.23;;;;;;;14.37;65.22;100320.97;4999486;28;20069;-67
2021/03/01 02:18:59;;;;;;;23.20;11.17;;;;;;;14.37;65.38;100321.81;4998225;28;20483;-68
2021/03/01 02:21:29;;;;;;;21.83;9.10;;;;;;;14.34;65.81;100304.75;4995615;28;20057;-70
2021/03/01 02:23:56;;;;;;;19.27;8.73;;;;;;;14.38;65.45;100315.03;4997254;28;20482;-67
2021/03/01 02:26:32;;;;;;;25.47;10.67;;;;;;;14.37;65.57;100313.38;5005980;28;20042;-68
2021/03/01 02:29:04;;;;;;;26.63;9.60;;;;;;;14.37;65.27;100302.13;4994017;28;20057;-68
2021/03/01 02:31:36;;;;;;;29.83;11.57;;;;;;;14.33;65.82;100308.72;5000691;28;20053;-69
2021/03/01 02:34:10;;;;;;;24.57;12.07;;;;;;;14.32;65.87;100299.41;5000100;28;20554;-69
2021/03/01 02:36:45;;;;;;;20.30;10.13;;;;;;;14.41;65.46;100294.75;4998575;28;20046;-67
2021/03/01 02:39:15;;;;;;;21.80;8.30;;;;;;;14.50;64.92;100296.84;5003782;28;20050;-68
2021/03/01 02:41:46;;;;;;;;;;;;;;;14.60;64.81;100296.66;4999716;28;20054;-68
2021/03/01 02:44:13;;;;;;;13.57;7.10;;;;;;;14.45;65.46;100298.59;4999325;28;20315;-68
2021/03/01 02:46:40;;;;;;;15.67;7.40;;;;;;;14.51;65.17;100302.16;5002926;28;20495;-67
2021/03/01 02:49:08;;;;;;;24.97;11.80;;;;;;;14.50;65.25;100288.41;5003112;28;20136;-68
2021/03/01 02:51:36;;;;;;;30.27;11.20;;;;;;;14.32;65.94;100284.53;4998226;28;20081;-69
2021/03/01 02:54:05;;;;;;;30.65;12.52;;;;;;;14.57;65.10;100305.72;4996706;28;20062;-69
2021/03/01 02:56:32;;;;;;;29.77;14.70;;;;;;;14.53;65.57;100302.69;4993803;28;20046;-69
2021/03/01 02:59:00;;;;;;;20.03;6.83;;;;;;;14.46;66.02;100285.38;5000324;28;20127;-67
2021/03/01 03:01:31;;;;;;;8.27;4.47;;;;;;;14.40;66.26;100295.06;4999280;28;20042;-64
2021/03/01 03:04:02;;;;;;;29.40;7.00;;;;;;;14.34;66.80;100305.56;5002372;28;20517;-65
2021/03/01 03:06:30;;;;;;;28.43;12.07;;;;;;;14.28;66.81;100284.34;4998378;28;20409;-65
2021/03/01 03:08:59;;;;;;;21.77;8.27;;;;;;;14.37;66.83;100299.34;4995782;28;20058;-66
2021/03/01 03:11:28;;;;;;;23.05;10.07;;;;;;;14.34;67.34;100299.13;5002239;28;20411;-69
2021/03/01 03:13:58;;;;;;;33.13;11.30;;;;;;;14.44;67.21;100307.34;4999428;28;20572;-65
2021/03/01 03:16:26;;;;;;;11.23;5.33;;;;;;;14.50;66.61;100285.59;5000194;28;20076;-65
2021/03/01 03:18:55;;;;;;;25.03;11.43;;;;;;;14.35;67.21;100290.38;5000460;28;20053;-64
2021/03/01 03:21:22;;;;;;;20.93;11.07;;;;;;;14.53;66.58;100290.59;4998942;28;20046;-62
2021/03/01 03:23:54;;;;;;;27.77;11.93;;;;;;;14.55;66.03;100271.47;4999990;28;20046;-67
2021/03/01 03:26:21;;;;;;;11.63;6.00;;;;;;;14.69;65.83;100289.97;5001479;28;20080;-67
2021/03/01 03:28:48;;;;;;;17.37;7.73;;;;;;;14.64;66.20;100292.06;4997020;28;20050;-67
2021/03/01 03:31:15;;;;;;;27.90;11.20;;;;;;;14.68;66.21;100295.91;4995092;28;20129;-66
2021/03/01 03:33:42;;;;;;;30.57;11.87;;;;;;;14.81;65.55;100286.63;4997061;28;20546;-68
2021/03/01 03:36:15;;;;;;;21.23;10.43;;;;;;;14.80;65.56;100275.69;4998318;28;20054;-68
2021/03/01 03:39:16;;;;;;;18.27;9.33;;;;;;;14.81;65.05;100281.00;4999889;28;20042;-69
2021/03/01 03:41:45;;;;;;;21.93;9.77;;;;;;;14.72;65.57;100271.63;4999941;28;20403;-67
2021/03/01 03:44:16;;;;;;;30.20;9.00;;;;;;;14.62;66.02;100274.69;4998096;28;20406;-67
2021/03/01 03:46:43;;;;;;;21.80;9.97;;;;;;;14.57;66.50;100269.19;5011602;28;20042;-66
2021/03/01 03:49:11;;;;;;;27.87;11.20;;;;;;;14.60;66.32;100260.94;4998176;28;20842;-65
2021/03/01 03:51:38;;;;;;;23.17;10.43;;;;;;;14.58;66.49;100270.84;4999288;28;20050;-66
2021/03/01 03:54:17;;;;;;;16.03;7.90;;;;;;;14.41;67.28;100272.28;4996403;28;20048;-66
2021/03/01 03:56:51;;;;;;;20.13;7.93;;;;;;;14.33;67.48;100263.75;4999130;28;20513;-65
2021/03/01 03:59:19;;;;;;;19.07;7.80;;;;;;;14.39;67.59;100276.53;4998884;28;20046;-65
2021/03/01 04:01:51;;;;;;;26.93;10.03;;;;;;;14.45;67.41;100269.66;4995566;28;20494;-65
2021/03/01 04:04:21;;;;;;;17.20;6.67;;;;;;;14.47;67.28;100261.78;5000816;28;20073;-65
2021/03/01 04:06:48;;;;;;;34.35;13.07;;;;;;;14.51;67.15;100276.06;4997320;28;20053;-66
2021/03/01 04:09:15;;;;;;;28.67;13.50;;;;;;;14.51;67.29;100270.44;5001182;28;20050;-66
2021/03/01 04:11:43;;;;;;;22.43;11.07;;;;;;;14.42;67.49;100259.88;4995039;28;20042;-64
2021/03/01 04:14:14;;;;;;;35.03;13.00;;;;;;;14.46;67.56;100275.00;4996452;28;20407;-68
2021/03/01 04:16:47;;;;;;;27.33;11.17;;;;;;;14.54;67.38;100276.25;5000563;28;20169;-66
2021/03/01 04:19:16;;;;;;;14.60;6.60;;;;;;;14.48;67.77;100276.66;4993877;28;20126;-66
2021/03/01 04:21:48;;;;;;;23.10;10.90;;;;;;;14.40;68.25;100275.41;4992296;28;20065;-66
2021/03/01 04:24:17;;;;;;;38.03;13.47;;;;;;;14.41;68.03;100266.66;4999102;28;21830;-65
2021/03/01 04:26:45;;;;;;;27.07;9.43;;;;;;;14.47;67.77;100273.00;5001430;28;20148;-65
2021/03/01 04:29:12;;;;;;;22.33;7.63;;;;;;;14.62;67.53;100277.50;4999866;28;20490;-66
2021/03/01 04:31:38;;;;;;;27.33;11.03;;;;;;;14.60;67.02;100262.94;5001414;28;20129;-65
2021/03/01 04:34:07;;;;;;;22.13;10.30;;;;;;;14.55;67.15;100265.84;5004290;28;20081;-65
2021/03/01 04:36:36;;;;;;;24.83;12.37;;;;;;;14.73;66.95;100290.16;4996804;28;20054;-64
2021/03/01 04:39:05;;;;;;;26.83;7.97;;;;;;;14.72;66.69;100277.25;5001959;28;20133;-66
2021/03/01 04:41:37;;;;;;;20.97;9.77;;;;;;;14.71;66.90;100286.03;5002752;28;20491;-64
2021/03/01 04:44:11;;;;;;;22.07;9.57;;;;;;;14.72;66.74;100277.25;4997155;28;20125;-64
2021/03/01 04:46:39;;;;;;;34.40;13.27;;;;;;;14.68;66.87;100273.41;4998926;28;20058;-65
2021/03/01 04:49:06;;;;;;;16.40;7.30;;;;;;;14.81;66.43;100283.81;5001689;28;20413;-64
2021/03/01 04:51:34;;;;;;;29.40;12.07;;;;;;;14.79;66.78;100282.47;4996806;28;20056;-65
2021/03/01 04:54:01;;;;;;;24.43;6.43;;;;;;;14.77;66.80;100279.97;4997607;28;20463;-64
2021/03/01 04:56:28;;;;;;;28.53;11.10;;;;;;;14.82;66.45;100279.03;4998041;28;20057;-64
2021/03/01 04:58:56;;;;;;;24.43;10.73;;;;;;;14.83;66.42;100278.69;4997518;28;20121;-65
2021/03/01 05:01:23;;;;;;;16.73;7.47;;;;;;;14.74;66.24;100257.28;5001685;28;20054;-66
2021/03/01 05:03:51;;;;;;;18.30;8.37;;;;;;;14.90;66.09;100275.44;4995562;28;20553;-65
2021/03/01 05:06:20;;;;;;;25.13;8.67;;;;;;;14.91;66.04;100280.78;4995683;28;20069;-65
2021/03/01 05:08:48;;;;;;;28.07;10.77;;;;;;;14.85;66.43;100276.41;5001820;28;20054;-66
2021/03/01 05:11:30;;;;;;;21.33;9.63;;;;;;;14.87;66.35;100279.75;5000791;28;20046;-64
2021/03/01 05:13:56;;;;;;;27.07;10.60;;;;;;;14.85;66.42;100287.66;4995275;28;20048;-64
2021/03/01 05:16:24;;;;;;;37.33;13.13;;;;;;;14.88;66.10;100274.94;4994863;28;20046;-64
2021/03/01 05:18:52;;;;;;;32.10;12.70;;;;;;;14.92;65.83;100271.19;4996952;28;20392;-67
2021/03/01 05:21:20;;;;;;;37.37;14.63;;;;;;;14.90;65.79;100273.47;5000208;28;20046;-66
2021/03/01 05:23:48;;;;;;;25.27;10.57;;;;;;;15.02;65.71;100286.16;4998391;28;20576;-66
2021/03/01 05:26:15;;;;;;;25.27;11.83;;;;;;;15.01;65.52;100279.72;5004171;28;20064;-67
2021/03/01 05:28:42;;;;;;;23.70;11.43;;;;;;;14.98;65.57;100285.13;4998024;28;20070;-68
2021/03/01 05:31:09;;;;;;;40.73;12.87;;;;;;;14.95;65.90;100299.81;4998163;28;20046;-66
2021/03/01 05:33:36;;;;;;;29.97;12.97;;;;;;;14.98;65.66;100283.16;4994866;28;20060;-66
2021/03/01 05:36:03;;;;;;;30.13;10.27;;;;;;;15.05;65.49;100291.16;4996898;28;20129;-71
2021/03/01 05:38:29;;;;;;;25.07;9.77;;;;;;;15.03;65.41;100288.63;4999000;28;20478;-70
2021/03/01 05:40:57;;;;;;;25.33;11.30;;;;;;;15.02;65.47;100294.59;4993749;28;20050;-71
2021/03/01 05:43:26;;;;;;;24.63;9.43;;;;;;;14.94;65.81;100287.75;4997413;28;20088;-71
2021/03/01 05:45:53;;;;;;;20.83;9.70;;;;;;;14.93;65.86;100289.69;4994691;28;20395;-72
2021/03/01 05:48:24;;;;;;;22.00;10.43;;;;;;;14.96;65.72;100285.44;4992010;28;20422;-70
2021/03/01 05:50:56;;;;;;;19.47;8.80;;;;;;;14.92;65.73;100278.78;4995041;28;20105;-72
2021/03/01 05:53:25;;;;;;;10.93;5.67;;;;;;;14.98;65.54;100282.31;4993067;28;20711;-72
2021/03/01 05:55:52;;;;;;;25.63;10.73;;;;;;;14.97;65.70;100289.06;4998831;28;20481;-71
2021/03/01 05:58:20;;;;;;;22.30;10.90;;;;;;;14.92;66.19;100287.22;4995312;28;20050;-72
2021/03/01 06:00:47;;;;;;;40.37;11.63;;;;;;;14.82;65.88;100270.59;4994925;28;20133;-66
2021/03/01 06:03:14;;;;;;;22.33;10.23;;;;;;;14.97;65.77;100295.53;5001084;28;20169;-67
2021/03/01 06:05:42;;;;;;;26.53;12.57;;;;;;;14.89;65.95;100285.88;5001175;28;20180;-68
2021/03/01 06:08:10;;;;;;;24.00;9.80;;;;;;;15.04;65.39;100295.09;5002271;28;20056;-68
2021/03/01 06:10:36;;;;;;;25.37;9.37;;;;;;;15.04;65.46;100293.13;5000300;28;20056;-69
2021/03/01 06:13:04;;;;;;;25.77;10.67;;;;;;;14.90;66.27;100295.97;5001142;28;20046;-69
2021/03/01 06:15:30;;;;;;;30.40;8.13;;;;;;;14.83;66.54;100295.56;4996366;28;20072;-68
2021/03/01 06:18:08;;;;;;;23.23;10.73;;;;;;;14.81;66.65;100288.59;5003199;28;20050;-68
2021/03/01 06:20:35;;;;;;;24.07;9.47;;;;;;;14.88;66.24;100287.03;4999798;28;20487;-66
2021/03/01 06:23:03;;;;;;;28.67;10.07;;;;;;;14.81;66.08;100269.75;5002958;28;20469;-76
2021/03/01 06:25:31;;;;;;;22.13;8.07;;;;;;;14.84;65.87;100263.50;5002341;28;20057;-63
2021/03/01 06:28:07;;;;;;;30.83;10.23;;;;;;;14.95;65.93;100297.00;5003800;28;20060;-66
2021/03/01 06:30:36;;;;;;;17.20;8.13;;;;;;;14.75;66.22;100270.19;4998778;28;20409;-64
2021/03/01 06:33:16;;;;;;;19.40;9.50;;;;;;;14.83;66.33;100295.56;4995568;28;20120;-64
2021/03/01 06:35:50;;;;;;;16.07;6.07;;;;;;;14.84;66.34;100308.47;5004325;28;20046;-66
2021/03/01 06:38:29;;;;;;;15.50;7.77;;;;;;;14.84;66.27;100291.63;5003637;28;20117;-64
2021/03/01 06:41:08;;;;;;;23.60;8.03;;;;;;;14.76;66.58;100297.97;4998686;28;20626;-58
2021/03/01 06:43:35;;;;;;;30.47;10.47;;;;;;;14.65;66.69;100271.25;4999917;28;20495;-58
2021/03/01 06:46:11;;;;;;;22.13;10.70;;;;;;;14.78;65.98;100278.81;5000144;28;20049;-59
2021/03/01 06:48:39;;;;;;;28.20;10.07;;;;;;;14.78;66.68;100297.66;5002615;28;20046;-59
2021/03/01 06:51:07;;;;;;;23.07;10.17;;;;;;;14.89;66.01;100301.91;5001868;28;20057;-59
2021/03/01 06:53:40;;;;;;;26.97;10.37;;;;;;;14.88;66.01;100292.66;5005124;28;20038;-58
2021/03/01 06:56:12;;;;;;;25.00;10.00;;;;;;;14.92;65.95;100304.91;5013055;28;20052;-59
2021/03/01 06:58:43;;;;;;;25.97;9.50;;;;;;;14.97;65.72;100308.75;5002935;28;20046;-58
2021/03/01 07:01:21;;;;;;;25.00;9.47;;;;;;;14.97;65.87;100312.41;4995745;28;20043;-59
2021/03/01 07:04:02;;;;;;;23.30;9.33;;;;;;;14.95;65.77;100313.88;4999410;28;20053;-59
2021/03/01 07:06:34;;;;;;;21.47;9.53;;;;;;;14.95;65.89;100319.50;4998402;28;20503;-63
2021/03/01 07:09:13;;;;;;;26.00;10.43;;;;;;;14.93;65.66;100305.75;4998865;28;20057;-63
2021/03/01 07:11:43;;;;;;;27.83;11.80;;;;;;;14.97;65.60;100312.41;4997295;28;20050;-63
2021/03/01 07:14:14;;;;;;;29.20;10.52;;;;;;;15.04;65.41;100326.03;5001033;28;20061;-60
2021/03/01 07:16:52;;;;;;;20.40;9.53;;;;;;;14.82;66.43;100322.00;5003819;28;20045;-61
2021/03/01 07:19:21;;;;;;;23.93;11.70;;;;;;;14.66;67.15;100323.47;4998251;28;20104;-59
2021/03/01 07:21:51;;;;;;;21.35;7.57;;;;;;;14.62;67.28;100333.69;5001934;28;20046;-66
2021/03/01 07:24:25;;;;;;;19.00;8.30;;;;;;;14.65;66.94;100333.91;4994914;28;20038;-64
2021/03/01 07:26:56;;;;;;;32.63;11.37;;;;;;;14.66;67.00;100329.09;4996655;28;20050;-59
2021/03/01 07:29:24;;;;;;;30.67;9.07;;;;;;;14.71;66.87;100337.44;4997736;28;20042;-60
2021/03/01 07:32:01;;;;;;;29.23;10.07;;;;;;;14.64;67.13;100334.22;4998929;28;20069;-60
2021/03/01 07:34:31;;;;;;;29.42;11.13;;;;;;;14.64;67.06;100343.47;5003582;28;20049;-60
2021/03/01 07:36:59;;;;;;;24.83;10.00;;;;;;;14.68;66.88;100347.31;4999484;28;20042;-60
2021/03/01 07:39:31;;;;;;;26.17;12.07;;;;;;;14.74;66.64;100348.06;5004679;28;20048;-61
2021/03/01 07:41:58;;;;;;;30.67;11.63;;;;;;;14.65;67.12;100355.56;4995655;28;20048;-61
2021/03/01 07:44:35;;;;;;;20.50;9.73;;;;;;;14.68;66.73;100343.69;4998917;28;20075;-60
2021/03/01 07:47:04;;;;;;;22.20;7.70;;;;;;;14.61;67.09;100357.34;5000394;28;20208;-59
2021/03/01 07:49:42;;;;;;;20.23;8.73;;;;;;;14.66;66.85;100354.41;5001143;28;20050;-59
2021/03/01 07:52:28;;;;;;;30.57;10.60;;;;;;;14.48;66.77;100327.22;4992113;28;20073;-60
2021/03/01 07:55:05;;;;;;;33.73;12.37;;;;;;;14.64;66.89;100359.53;4995299;28;20046;-60
2021/03/01 07:57:35;;;;;;;19.80;9.27;;;;;;;14.62;66.79;100347.75;4995755;28;20141;-60
2021/03/01 08:00:27;;;;;;;17.47;7.77;;;;;;;14.68;66.75;100368.97;4995926;28;20498;-60
2021/03/01 08:02:57;;;;;;;12.43;6.53;;;;;;;14.72;66.68;100370.03;4990697;28;20069;-60
2021/03/01 08:05:25;;;;;;;25.15;11.43;;;;;;;14.69;66.76;100367.81;4999192;28;20615;-60
2021/03/01 08:07:53;;;;;;;27.37;11.03;;;;;;;14.68;66.88;100368.97;4995922;28;20048;-60
2021/03/01 08:10:28;;;;;;;27.77;10.47;;;;;;;14.61;67.02;100377.00;4995113;28;20195;-60
2021/03/01 08:12:57;;;;;;;19.40;7.53;;;;;;;14.67;66.67;100370.97;4995706;28;20046;-60
2021/03/01 08:15:26;;;;;;;16.40;8.57;;;;;;;14.55;67.25;100372.63;4993600;28;20406;-61
2021/03/01 08:17:56;;;;;;;26.23;10.53;;;;;;;14.45;67.51;100377.25;4995791;28;20100;-59
2021/03/01 08:20:22;;;;;;;21.53;8.93;;;;;;;14.50;67.43;100395.19;4998037;28;20204;-60
2021/03/01 08:25:46;;;;;;;20.03;8.53;;;;;;;14.68;66.73;100383.88;5000655;28;20068;-61
2021/03/01 08:28:15;;;;;;;19.37;9.47;;;;;;;14.75;66.44;100397.50;5001553;28;20550;-62
2021/03/01 08:31:02;;;;;;;17.67;7.93;;;;;;;14.68;66.70;100400.72;4998423;28;20049;-62
2021/03/01 08:33:28;;;;;;;27.67;10.77;;;;;;;14.67;66.76;100401.06;4978793;28;20046;-61
2021/03/01 08:36:01;;;;;;;22.50;10.77;;;;;;;14.71;66.76;100392.81;4994171;28;20181;-61
2021/03/01 08:38:42;;;;;;;20.40;7.40;;;;;;;14.73;66.56;100382.09;4999002;28;20050;-61
2021/03/01 08:41:16;;;;;;;21.53;10.10;;;;;;;14.75;66.42;100386.25;4996306;28;20099;-62
2021/03/01 08:43:54;;;;;;;19.80;8.73;;;;;;;14.84;66.02;100392.81;4997447;28;20395;-62
2021/03/01 08:46:23;;;;;;;17.90;9.50;;;;;;;14.72;66.35;100395.31;4995968;28;20411;-62
2021/03/01 08:48:55;;;;;;;12.35;5.97;;;;;;;14.78;66.10;100399.69;5010195;28;20072;-61
2021/03/01 08:51:25;;;;;;;21.23;8.47;;;;;;;14.80;66.13;100397.41;4997966;28;20555;-61
2021/03/01 08:53:53;;;;;;;17.10;7.33;;;;;;;14.78;66.02;100391.25;4996725;28;20463;-62
2021/03/01 08:56:25;;;;;;;22.03;10.47;;;;;;;14.79;65.99;100400.53;4994571;28;20054;-60
2021/03/01 08:58:54;;;;;;;21.17;8.00;;;;;;;14.72;65.70;100366.38;4996422;28;20191;-61
2021/03/01 09:01:21;;;;;;;24.60;9.57;;;;;;;14.87;65.64;100395.00;5000563;28;20056;-61
2021/03/01 09:03:48;;;;;;;9.33;5.47;;;;;;;14.90;65.62;100394.34;5000747;28;20058;-60
2021/03/01 09:06:17;;;;;;;22.97;10.40;;;;;;;14.83;65.92;100405.19;4998489;28;20970;-62
2021/03/01 09:08:49;;;;;;;24.67;9.97;;;;;;;14.69;66.60;100407.19;4999354;28;20046;-60
2021/03/01 09:11:24;;;;;;;21.37;11.13;;;;;;;14.74;66.41;100406.25;5001239;28;20046;-60
2021/03/01 09:14:03;;;;;;;27.57;11.70;;;;;;;14.65;66.49;100389.28;4996813;28;20050;-62
2021/03/01 09:16:32;;;;;;;19.07;9.13;;;;;;;14.72;66.61;100405.72;4996192;28;20046;-61
2021/03/01 09:19:09;;;;;;;24.25;8.65;;;;;;;14.82;66.43;100416.78;4999506;28;20141;-61
2021/03/01 09:21:39;;;;;;;31.90;11.50;;;;;;;14.78;66.52;100410.09;4997986;28;20056;-60
2021/03/01 09:24:06;;;;;;;21.40;7.90;;;;;;;14.85;66.14;100416.16;4998677;28;20136;-61
2021/03/01 09:26:38;;;;;;;10.40;6.17;;;;;;;14.83;65.98;100402.38;5002187;28;20042;-59
2021/03/01 09:29:13;;;;;;;14.33;8.47;;;;;;;14.84;65.73;100406.88;5000638;28;20504;-61
2021/03/01 09:31:43;;;;;;;18.80;8.43;;;;;;;14.91;65.72;100421.34;4999243;28;21398;-59
2021/03/01 09:34:14;;;;;;;19.17;9.10;;;;;;;15.03;65.21;100428.41;4996717;28;20069;-57
2021/03/01 09:36:47;;;;;;;25.77;10.27;;;;;;;15.13;64.86;100433.81;4998730;28;20100;-59
2021/03/01 09:39:22;;;;;;;27.60;8.20;;;;;;;15.07;64.63;100418.19;5002620;28;20045;-59
2021/03/01 09:41:49;;;;;;;13.90;6.03;;;;;;;15.33;64.11;100450.25;5001693;28;20049;-58
2021/03/01 09:44:28;;;;;;;25.33;8.80;;;;;;;15.43;63.87;100439.94;5000893;28;20042;-59
2021/03/01 09:46:57;;;;;;;18.90;7.50;;;;;;;15.30;63.89;100431.19;5001112;28;20495;-59
2021/03/01 09:49:30;;;;;;;18.20;7.00;;;;;;;15.11;63.93;100425.72;4983921;28;20058;-59
2021/03/01 09:51:57;;;;;;;17.77;7.93;;;;;;;15.36;63.52;100438.38;4997293;28;20429;-59
2021/03/01 09:54:26;;;;;;;16.40;6.50;;;;;;;15.40;63.38;100445.03;4997453;28;20058;-59
2021/03/01 09:56:55;;;;;;;21.60;8.97;;;;;;;15.44;63.31;100433.16;4996970;28;20043;-59
2021/03/01 09:59:35;;;;;;;16.50;7.17;;;;;;;15.43;63.29;100440.78;5000286;28;20046;-61
2021/03/01 10:02:19;;;;;;;16.13;8.17;;;;;;;15.39;63.35;100409.63;4995224;28;20471;-59
2021/03/01 10:04:47;;;;;;;14.07;5.63;;;;;;;15.38;63.51;100443.69;4997529;28;20050;-61
2021/03/01 10:07:33;;;;;;;15.23;6.40;;;;;;;15.49;63.02;100430.25;4995373;28;20060;-58
2021/03/01 10:10:11;;;;;;;15.03;7.50;;;;;;;15.41;63.26;100438.25;4998433;28;20065;-60
2021/03/01 10:12:46;;;;;;;17.77;9.17;;;;;;;15.48;62.94;100432.19;4999149;28;20046;-59
2021/03/01 10:15:21;;;;;;;22.73;8.40;;;;;;;15.71;62.61;100433.09;4999058;28;20042;-62
2021/03/01 10:18:02;;;;;;;17.33;8.27;;;;;;;15.85;62.42;100439.50;4999212;28;20050;-59
2021/03/01 10:20:30;;;;;;;18.80;8.53;;;;;;;16.01;61.79;100444.78;4999019;28;20053;-59
2021/03/01 10:23:05;;;;;;;24.63;10.73;;;;;;;16.11;61.68;100442.53;5000703;28;20415;-58
2021/03/01 10:25:31;;;;;;;7.23;4.00;;;;;;;16.16;61.58;100447.19;4994532;28;20076;-61
2021/03/01 10:28:03;;;;;;;20.65;8.68;;;;;;;16.16;61.23;100438.75;5003007;28;20065;-59
2021/03/01 10:30:32;;;;;;;22.77;11.13;;;;;;;16.07;61.25;100437.88;4996361;28;20057;-59
2021/03/01 10:33:06;;;;;;;15.82;6.60;;;;;;;15.99;61.37;100455.53;4993490;28;20046;-58
2021/03/01 10:35:35;;;;;;;16.27;8.53;;;;;;;16.09;61.27;100455.28;5001276;28;20137;-59
2021/03/01 10:38:05;;;;;;;21.20;8.23;;;;;;;15.93;61.22;100456.78;4999907;28;20137;-59
2021/03/01 10:40:31;;;;;;;10.43;6.63;;;;;;;16.06;60.85;100461.53;5004098;28;20136;-60
2021/03/01 10:43:16;;;;;;;22.40;9.00;;;;;;;16.05;60.92;100465.53;5000190;28;20061;-63
2021/03/01 10:45:46;;;;;;;21.97;7.77;;;;;;;15.91;60.71;100454.31;4998732;28;20046;-60
2021/03/01 10:48:13;;;;;;;20.80;7.80;;;;;;;16.04;60.79;100461.88;4998795;28;20139;-64
2021/03/01 10:50:39;;;;;;;17.03;7.10;;;;;;;15.87;61.04;100465.38;4996763;28;20042;-60
2021/03/01 10:53:07;;;;;;;15.63;6.10;;;;;;;15.78;60.82;100447.56;4996592;28;20069;-61
2021/03/01 10:55:33;;;;;;;14.27;5.83;;;;;;;15.76;60.85;100449.88;4996962;28;20049;-60
2021/03/01 10:57:59;;;;;;;12.70;5.23;;;;;;;15.79;60.70;100460.50;5000821;28;20057;-67
2021/03/01 11:00:31;;;;;;;20.63;6.90;;;;;;;15.87;60.56;100454.13;4994914;28;20423;-61
2021/03/01 11:02:57;;;;;;;13.90;5.50;;;;;;;16.02;60.08;100466.97;5000038;28;20577;-62
2021/03/01 11:05:24;;;;;;;8.07;3.73;;;;;;;15.99;59.93;100447.06;5000130;28;20038;-60
2021/03/01 11:07:50;;;;;;;13.23;5.17;;;;;;;15.96;59.86;100453.34;4997820;28;20049;-67
2021/03/01 11:10:16;;;;;;;8.63;3.93;;;;;;;15.92;59.69;100466.41;4997813;28;20064;-67
2021/03/01 11:12:42;;;;;;;15.23;4.97;;;;;;;15.98;59.40;100462.31;4998849;28;20129;-70
2021/03/01 11:15:09;;;;;;;13.20;3.70;;;;;;;16.00;59.63;100463.69;4998855;28;20056;-68
2021/03/01 11:17:36;;;;;;;10.13;5.40;;;;;;;16.09;59.36;100469.34;4999928;28;20042;-67
2021/03/01 11:20:03;;;;;;;20.70;5.63;;;;;;;16.24;59.08;100465.31;4998171;28;20060;-67
2021/03/01 11:22:29;;;;;;;13.33;5.47;;;;;;;16.33;58.97;100469.03;5000591;28;20066;-66
2021/03/01 11:24:55;;;;;;;9.33;5.30;;;;;;;16.42;58.38;100455.84;5001874;28;20124;-70
2021/03/01 11:27:22;;;;;;;10.43;3.97;;;;;;;16.29;58.47;100468.84;4998938;28;20133;-65
2021/03/01 11:29:48;;;;;;;10.40;5.40;;;;;;;16.25;58.63;100467.81;4998889;28;20045;-61